EGUN

RAF Mildenhall Airport

Mildenhall, United Kingdom
METAR EGUN 260256Z AUTO 07007KT 9999 OVC048 00/M05 A3048 RMK AO2 SLP325 60000 T10011049 53005 $
Observed Flight Rules
Feb-26 @ 02:56 UTC (21 minutes ago) Visual Flight Rules
Wind Visibility Clouds
70° at 7 knots 10,000+ meters
  • Overcast at 4,800' AGL
Temperatures Readings
Current -0°C / 32°F
Dewpoint -5°C / 23°F
Humidity 69%
Altimeter 30.48" Hg
Pressure 1032.5 hPa
Elevation 10
METAR EGUN 260256Z AUTO 07007KT 9999 OVC048 00/M05 A3048 RMK AO2 SLP325 60000 T10011049 53005 $
Observed Flight Rules
Feb-26 @ 02:56 UTC
(21 minutes ago)
VFR
Wind Visibility
70° at 7 knots 10,000+ meters
Clouds
  • Overcast at 4,800' AGL
Temperature Dewpoint
-0°C / 32°F -5°C / 23°F
Humidity Altimeter Pressure
69% 30.48" Hg 1032.5 hPa